OEA219 VHHH-VTSP
Flight info
| Callsign | OEA219 |
|---|---|
| Flight time | N/A |
| Altitude | 38000 |
| Route | PECAN V10 SIKOU/K0917S1160 A202 ASSAD/K0917F380 A202 VILAO/N0495F380 A202 RAMEI W42 MENEX Y8 SAVSA SAVSA1C |
| Aircraft | B742/H-SDFHIRWXY/L |
Departure
| Time | N/A |
|---|---|
| Airport | Hong Kong International Airport (VHHH) |
Arrival
| Time | 2026-05-06 00:30 |
|---|---|
| Airport | Phuket International Airport (VTSP) |
| Time | Latitude | Longitude | Altitude | Speed | Heading |
|---|---|---|---|---|---|
| 2026-05-05 21:35 | 21.92366 | 114.32179 | 13467 ft | 348 kts | 210° |
| 2026-05-05 21:35 | 21.90324 | 114.30782 | 13902 ft | 349 kts | 220° |
| 2026-05-05 21:35 | 21.88596 | 114.28959 | 14288 ft | 351 kts | 233° |
| 2026-05-05 21:35 | 21.87250 | 114.26730 | 14727 ft | 353 kts | 243° |
| 2026-05-05 21:36 | 21.86189 | 114.24371 | 15141 ft | 356 kts | 248° |
| 2026-05-05 21:36 | 21.85228 | 114.21890 | 15561 ft | 359 kts | 249° |
| 2026-05-05 21:36 | 21.84313 | 114.19385 | 15970 ft | 363 kts | 250° |
| 2026-05-05 21:36 | 21.83399 | 114.16845 | 16379 ft | 366 kts | 250° |
| 2026-05-05 21:37 | 21.82473 | 114.14268 | 16790 ft | 369 kts | 250° |
| 2026-05-05 21:37 | 21.81551 | 114.11704 | 17172 ft | 373 kts | 250° |
| 2026-05-05 21:37 | 21.80604 | 114.09080 | 17585 ft | 376 kts | 250° |
| 2026-05-05 21:37 | 21.79665 | 114.06480 | 18039 ft | 377 kts | 250° |
| 2026-05-05 21:38 | 21.78702 | 114.03818 | 18479 ft | 380 kts | 250° |
| 2026-05-05 21:38 | 21.77748 | 114.01180 | 18917 ft | 382 kts | 251° |
| 2026-05-05 21:38 | 21.76780 | 113.98506 | 19373 ft | 383 kts | 251° |
| 2026-05-05 21:38 | 21.75820 | 113.95856 | 19822 ft | 384 kts | 251° |
| 2026-05-05 21:39 | 21.74844 | 113.93160 | 20242 ft | 387 kts | 251° |
| 2026-05-05 21:39 | 21.73875 | 113.90487 | 20685 ft | 388 kts | 251° |
| 2026-05-05 21:39 | 21.72896 | 113.87788 | 21112 ft | 390 kts | 251° |
| 2026-05-05 21:39 | 21.71906 | 113.85061 | 21485 ft | 392 kts | 251° |
| 2026-05-05 21:40 | 21.70906 | 113.82308 | 21909 ft | 393 kts | 251° |
| 2026-05-05 21:40 | 21.69910 | 113.79567 | 22289 ft | 395 kts | 251° |
| 2026-05-05 21:40 | 21.68915 | 113.76829 | 22670 ft | 396 kts | 251° |
| 2026-05-05 21:40 | 21.67914 | 113.74080 | 23016 ft | 399 kts | 251° |
| 2026-05-05 21:41 | 21.66897 | 113.71283 | 23371 ft | 400 kts | 251° |
| 2026-05-05 21:41 | 21.65889 | 113.68515 | 23704 ft | 402 kts | 251° |
| 2026-05-05 21:41 | 21.64863 | 113.65700 | 24033 ft | 404 kts | 251° |
| 2026-05-05 21:41 | 21.63837 | 113.62888 | 24383 ft | 406 kts | 251° |
| 2026-05-05 21:42 | 21.62818 | 113.60093 | 24705 ft | 408 kts | 251° |
| 2026-05-05 21:42 | 21.61769 | 113.57220 | 25016 ft | 410 kts | 251° |
| 2026-05-05 21:42 | 21.60739 | 113.54400 | 25312 ft | 412 kts | 251° |
| 2026-05-05 21:42 | 21.59683 | 113.51511 | 25646 ft | 413 kts | 251° |
| 2026-05-05 21:43 | 21.58633 | 113.48638 | 25957 ft | 415 kts | 251° |
| 2026-05-05 21:43 | 21.57572 | 113.45738 | 26265 ft | 417 kts | 251° |
| 2026-05-05 21:43 | 21.56521 | 113.42869 | 26572 ft | 418 kts | 251° |
| 2026-05-05 21:43 | 21.55443 | 113.39923 | 26869 ft | 420 kts | 252° |
| 2026-05-05 21:44 | 21.54376 | 113.37011 | 27141 ft | 422 kts | 252° |
| 2026-05-05 21:44 | 21.53297 | 113.34070 | 27411 ft | 424 kts | 251° |
| 2026-05-05 21:44 | 21.52200 | 113.31117 | 27691 ft | 426 kts | 251° |
| 2026-05-05 21:44 | 21.51111 | 113.28194 | 27980 ft | 427 kts | 251° |
| 2026-05-05 21:45 | 21.50001 | 113.25205 | 28239 ft | 429 kts | 251° |
| 2026-05-05 21:45 | 21.48911 | 113.22259 | 28469 ft | 431 kts | 251° |
| 2026-05-05 21:45 | 21.47802 | 113.19257 | 28735 ft | 432 kts | 251° |
| 2026-05-05 21:45 | 21.46705 | 113.16281 | 28994 ft | 433 kts | 251° |
| 2026-05-05 21:46 | 21.45598 | 113.13280 | 29223 ft | 434 kts | 251° |
| 2026-05-05 21:46 | 21.44475 | 113.10235 | 29434 ft | 437 kts | 251° |
| 2026-05-05 21:46 | 21.43358 | 113.07206 | 29684 ft | 437 kts | 251° |
| 2026-05-05 21:46 | 21.42243 | 113.04187 | 29906 ft | 439 kts | 251° |
| 2026-05-05 21:47 | 21.41118 | 113.01141 | 30111 ft | 440 kts | 251° |
| 2026-05-05 21:47 | 21.39985 | 112.98074 | 30336 ft | 441 kts | 251° |
| 2026-05-05 21:47 | 21.38850 | 112.95004 | 30551 ft | 443 kts | 251° |
| 2026-05-05 21:47 | 21.37708 | 112.91917 | 30762 ft | 444 kts | 251° |
| 2026-05-05 21:48 | 21.36577 | 112.88863 | 31001 ft | 445 kts | 251° |
| 2026-05-05 21:48 | 21.35438 | 112.85792 | 31194 ft | 446 kts | 251° |
| 2026-05-05 21:48 | 21.34294 | 112.82704 | 31422 ft | 447 kts | 251° |
| 2026-05-05 21:48 | 21.33138 | 112.79590 | 31608 ft | 448 kts | 251° |
| 2026-05-05 21:49 | 21.31979 | 112.76468 | 31792 ft | 450 kts | 251° |
| 2026-05-05 21:49 | 21.30829 | 112.73369 | 31961 ft | 452 kts | 251° |
| 2026-05-05 21:49 | 21.29664 | 112.70236 | 32164 ft | 453 kts | 251° |
| 2026-05-05 21:49 | 21.28499 | 112.67104 | 32341 ft | 454 kts | 251° |
| 2026-05-05 21:50 | 21.27330 | 112.63965 | 32548 ft | 455 kts | 251° |
| 2026-05-05 21:50 | 21.26164 | 112.60833 | 32738 ft | 457 kts | 251° |
| 2026-05-05 21:50 | 21.24983 | 112.57666 | 32942 ft | 458 kts | 251° |
| 2026-05-05 21:50 | 21.23801 | 112.54496 | 33114 ft | 459 kts | 251° |
| 2026-05-05 21:51 | 21.22614 | 112.51315 | 33310 ft | 460 kts | 251° |
| 2026-05-05 21:51 | 21.21434 | 112.48155 | 33454 ft | 462 kts | 251° |
| 2026-05-05 21:51 | 21.20225 | 112.44919 | 33608 ft | 464 kts | 251° |
| 2026-05-05 21:51 | 21.19033 | 112.41730 | 33784 ft | 465 kts | 251° |
| 2026-05-05 21:52 | 21.16612 | 112.35262 | 34109 ft | 467 kts | 251° |
| 2026-05-05 21:52 | 21.15391 | 112.32024 | 34273 ft | 469 kts | 250° |
| 2026-05-05 21:52 | 21.14174 | 112.28824 | 34431 ft | 470 kts | 250° |
| 2026-05-05 21:53 | 21.12942 | 112.25578 | 34583 ft | 471 kts | 250° |
| 2026-05-05 21:53 | 21.11705 | 112.22310 | 34745 ft | 472 kts | 250° |
| 2026-05-05 21:53 | 21.10476 | 112.19051 | 34912 ft | 473 kts | 250° |
| 2026-05-05 21:53 | 21.09248 | 112.15791 | 35044 ft | 474 kts | 250° |
| 2026-05-05 21:54 | 21.08017 | 112.12524 | 35221 ft | 474 kts | 250° |
| 2026-05-05 21:54 | 21.06776 | 112.09228 | 35482 ft | 473 kts | 250° |
| 2026-05-05 21:54 | 21.05552 | 112.05981 | 35742 ft | 471 kts | 250° |
| 2026-05-05 21:54 | 21.04341 | 112.02771 | 36001 ft | 470 kts | 250° |
| 2026-05-05 21:55 | 21.03124 | 111.99545 | 36262 ft | 467 kts | 251° |
| 2026-05-05 21:55 | 21.01903 | 111.96310 | 36525 ft | 465 kts | 250° |
| 2026-05-05 21:55 | 21.00689 | 111.93099 | 36788 ft | 463 kts | 251° |
| 2026-05-05 21:55 | 20.99498 | 111.89947 | 36987 ft | 462 kts | 251° |
| 2026-05-05 21:56 | 20.98288 | 111.86748 | 37102 ft | 462 kts | 251° |
| 2026-05-05 21:56 | 20.95871 | 111.80358 | 37213 ft | 465 kts | 250° |
| 2026-05-05 21:57 | 20.93447 | 111.73962 | 37370 ft | 466 kts | 250° |
| 2026-05-05 21:57 | 20.91013 | 111.67551 | 37553 ft | 467 kts | 250° |
| 2026-05-05 21:58 | 20.88555 | 111.61079 | 37681 ft | 469 kts | 250° |
| 2026-05-05 21:58 | 20.86103 | 111.54628 | 37846 ft | 470 kts | 251° |
| 2026-05-05 21:59 | 20.83593 | 111.48164 | 37879 ft | 472 kts | 250° |
| 2026-05-05 21:59 | 20.81369 | 111.41594 | 37879 ft | 472 kts | 254° |
| 2026-05-05 22:00 | 20.79266 | 111.34990 | 37881 ft | 470 kts | 253° |
| 2026-05-05 22:00 | 20.77088 | 111.28435 | 37880 ft | 470 kts | 252° |
| 2026-05-05 22:01 | 20.74865 | 111.21847 | 37882 ft | 472 kts | 252° |
| 2026-05-05 22:01 | 20.72650 | 111.15274 | 37881 ft | 473 kts | 252° |
| 2026-05-05 22:02 | 20.70420 | 111.08658 | 37883 ft | 471 kts | 252° |
| 2026-05-05 22:02 | 20.68212 | 111.02111 | 37880 ft | 472 kts | 252° |
| 2026-05-05 22:03 | 20.65980 | 110.95499 | 37882 ft | 472 kts | 252° |
| 2026-05-05 22:03 | 20.63763 | 110.88938 | 37882 ft | 470 kts | 253° |
| 2026-05-05 22:04 | 20.61568 | 110.82386 | 37878 ft | 471 kts | 253° |
| 2026-05-05 22:04 | 20.59357 | 110.75787 | 37883 ft | 473 kts | 253° |
| 2026-05-05 22:05 | 20.57149 | 110.69212 | 37884 ft | 474 kts | 253° |
| 2026-05-05 22:05 | 20.54929 | 110.62618 | 37881 ft | 471 kts | 253° |
| 2026-05-05 22:06 | 20.52711 | 110.56034 | 37882 ft | 471 kts | 253° |
| 2026-05-05 22:06 | 20.50314 | 110.49578 | 37881 ft | 475 kts | 243° |
| 2026-05-05 22:07 | 20.46398 | 110.43829 | 37886 ft | 482 kts | 234° |
| 2026-05-05 22:07 | 20.42090 | 110.38335 | 37884 ft | 482 kts | 233° |
| 2026-05-05 22:08 | 20.37815 | 110.32850 | 37888 ft | 481 kts | 233° |
| 2026-05-05 22:08 | 20.33545 | 110.27342 | 37888 ft | 482 kts | 233° |
| 2026-05-05 22:09 | 20.29294 | 110.21803 | 37883 ft | 482 kts | 234° |
| 2026-05-05 22:09 | 20.25123 | 110.16241 | 37880 ft | 481 kts | 234° |
| 2026-05-05 22:10 | 20.20955 | 110.10660 | 37883 ft | 481 kts | 234° |
| 2026-05-05 22:10 | 20.16785 | 110.05093 | 37881 ft | 481 kts | 234° |
| 2026-05-05 22:11 | 20.12594 | 109.99505 | 37873 ft | 482 kts | 234° |
| 2026-05-05 22:11 | 20.08426 | 109.93958 | 37865 ft | 484 kts | 234° |
| 2026-05-05 22:12 | 20.04220 | 109.88364 | 37860 ft | 484 kts | 234° |
| 2026-05-05 22:12 | 20.00006 | 109.82766 | 37861 ft | 483 kts | 234° |
| 2026-05-05 22:13 | 19.95807 | 109.77191 | 37861 ft | 483 kts | 234° |
| 2026-05-05 22:13 | 19.91610 | 109.71627 | 37867 ft | 481 kts | 234° |
| 2026-05-05 22:14 | 19.87431 | 109.66087 | 37865 ft | 482 kts | 234° |
| 2026-05-05 22:14 | 19.83210 | 109.60496 | 37866 ft | 482 kts | 234° |
| 2026-05-05 22:15 | 19.79028 | 109.54964 | 37873 ft | 482 kts | 234° |
| 2026-05-05 22:15 | 19.74822 | 109.49408 | 37875 ft | 482 kts | 234° |
| 2026-05-05 22:16 | 19.70623 | 109.43865 | 37872 ft | 483 kts | 234° |
| 2026-05-05 22:16 | 19.66397 | 109.38293 | 37878 ft | 483 kts | 234° |
| 2026-05-05 22:17 | 19.62186 | 109.32754 | 37882 ft | 483 kts | 234° |
| 2026-05-05 22:17 | 19.57948 | 109.27224 | 37882 ft | 483 kts | 234° |
| 2026-05-05 22:18 | 19.53699 | 109.21659 | 37883 ft | 483 kts | 234° |
| 2026-05-05 22:18 | 19.49468 | 109.16129 | 37885 ft | 484 kts | 234° |
| 2026-05-05 22:19 | 19.45201 | 109.10592 | 37886 ft | 484 kts | 233° |
| 2026-05-05 22:19 | 19.40945 | 109.05077 | 37885 ft | 483 kts | 234° |
| 2026-05-05 22:20 | 19.36693 | 108.99566 | 37883 ft | 483 kts | 234° |
| 2026-05-05 22:20 | 19.32433 | 108.94049 | 37882 ft | 484 kts | 234° |
| 2026-05-05 22:21 | 19.28155 | 108.88515 | 37880 ft | 484 kts | 233° |
| 2026-05-05 22:21 | 19.23871 | 108.82976 | 37881 ft | 486 kts | 233° |
| 2026-05-05 22:22 | 19.19582 | 108.77434 | 37886 ft | 486 kts | 233° |
| 2026-05-05 22:22 | 19.15323 | 108.71938 | 37885 ft | 482 kts | 233° |
| 2026-05-05 22:23 | 19.11043 | 108.66420 | 37883 ft | 483 kts | 233° |
| 2026-05-05 22:23 | 19.06776 | 108.60922 | 37880 ft | 484 kts | 233° |
| 2026-05-05 22:24 | 19.02498 | 108.55415 | 37886 ft | 484 kts | 233° |
| 2026-05-05 22:24 | 18.98213 | 108.49904 | 37887 ft | 484 kts | 233° |
| 2026-05-05 22:25 | 18.93950 | 108.44425 | 37884 ft | 485 kts | 233° |
| 2026-05-05 22:25 | 18.89642 | 108.38895 | 37875 ft | 486 kts | 233° |
| 2026-05-05 22:26 | 18.85362 | 108.33407 | 37872 ft | 485 kts | 233° |
| 2026-05-05 22:26 | 18.81046 | 108.27918 | 37869 ft | 485 kts | 232° |
| 2026-05-05 22:27 | 18.76732 | 108.22418 | 37870 ft | 485 kts | 233° |
| 2026-05-05 22:27 | 18.72405 | 108.16890 | 37867 ft | 486 kts | 233° |
| 2026-05-05 22:28 | 18.68108 | 108.11398 | 37866 ft | 486 kts | 233° |
| 2026-05-05 22:28 | 18.63816 | 108.05917 | 37860 ft | 484 kts | 233° |
| 2026-05-05 22:29 | 18.59489 | 108.00397 | 37861 ft | 486 kts | 233° |
| 2026-05-05 22:29 | 18.55186 | 107.94911 | 37862 ft | 487 kts | 232° |
| 2026-05-05 22:30 | 18.50852 | 107.89391 | 37861 ft | 487 kts | 232° |
| 2026-05-05 22:30 | 18.46519 | 107.83878 | 37861 ft | 486 kts | 233° |
| 2026-05-05 22:31 | 18.42194 | 107.78380 | 37862 ft | 487 kts | 232° |
| 2026-05-05 22:31 | 18.37876 | 107.72894 | 37861 ft | 486 kts | 232° |
| 2026-05-05 22:32 | 18.33618 | 107.67359 | 37863 ft | 484 kts | 237° |
| 2026-05-05 22:32 | 18.29940 | 107.61407 | 37863 ft | 484 kts | 240° |
| 2026-05-05 22:33 | 18.26406 | 107.55411 | 37862 ft | 485 kts | 240° |
| 2026-05-05 22:33 | 18.22801 | 107.49380 | 37862 ft | 485 kts | 240° |
| 2026-05-05 22:34 | 18.19189 | 107.43396 | 37862 ft | 485 kts | 240° |
| 2026-05-05 22:34 | 18.15564 | 107.37408 | 37861 ft | 485 kts | 239° |
| 2026-05-05 22:35 | 18.11908 | 107.31398 | 37861 ft | 486 kts | 239° |
| 2026-05-05 22:35 | 18.08257 | 107.25429 | 37863 ft | 484 kts | 239° |
| 2026-05-05 22:36 | 18.04631 | 107.19481 | 37866 ft | 484 kts | 239° |
| 2026-05-05 22:36 | 18.00990 | 107.13504 | 37865 ft | 485 kts | 239° |
| 2026-05-05 22:37 | 17.97354 | 107.07538 | 37866 ft | 484 kts | 239° |
| 2026-05-05 22:37 | 17.93715 | 107.01570 | 37863 ft | 483 kts | 239° |
| 2026-05-05 22:38 | 17.90080 | 106.95616 | 37870 ft | 485 kts | 239° |
| 2026-05-05 22:38 | 17.86430 | 106.89623 | 37881 ft | 487 kts | 239° |
| 2026-05-05 22:39 | 17.82784 | 106.83611 | 37877 ft | 485 kts | 239° |
| 2026-05-05 22:39 | 17.79153 | 106.77631 | 37877 ft | 484 kts | 239° |
| 2026-05-05 22:40 | 17.75540 | 106.71689 | 37874 ft | 485 kts | 239° |
| 2026-05-05 22:40 | 17.71905 | 106.65719 | 37868 ft | 485 kts | 239° |
| 2026-05-05 22:41 | 17.68262 | 106.59743 | 37866 ft | 484 kts | 239° |
| 2026-05-05 22:41 | 17.64628 | 106.53801 | 37871 ft | 484 kts | 239° |
| 2026-05-05 22:42 | 17.60972 | 106.47836 | 37863 ft | 485 kts | 239° |
| 2026-05-05 22:42 | 17.57316 | 106.41876 | 37877 ft | 484 kts | 239° |
| 2026-05-05 22:43 | 17.53654 | 106.35910 | 37887 ft | 485 kts | 239° |
| 2026-05-05 22:43 | 17.50001 | 106.29996 | 37897 ft | 486 kts | 239° |
| 2026-05-05 22:44 | 17.46312 | 106.24038 | 37913 ft | 485 kts | 239° |
| 2026-05-05 22:44 | 17.42632 | 106.18071 | 37929 ft | 486 kts | 239° |
| 2026-05-05 22:45 | 17.38969 | 106.12127 | 37934 ft | 485 kts | 239° |
| 2026-05-05 22:45 | 17.35312 | 106.06174 | 37931 ft | 483 kts | 239° |
| 2026-05-05 22:46 | 17.31713 | 106.00218 | 37925 ft | 484 kts | 239° |
| 2026-05-05 22:46 | 17.28094 | 105.94226 | 37921 ft | 485 kts | 239° |
| 2026-05-05 22:47 | 17.24491 | 105.88274 | 37913 ft | 485 kts | 239° |
| 2026-05-05 22:47 | 17.20860 | 105.82285 | 37916 ft | 486 kts | 239° |
| 2026-05-05 22:48 | 17.17239 | 105.76318 | 37912 ft | 486 kts | 239° |
| 2026-05-05 22:48 | 17.13593 | 105.70316 | 37913 ft | 486 kts | 239° |
| 2026-05-05 22:49 | 17.09969 | 105.64356 | 37906 ft | 487 kts | 239° |
| 2026-05-05 22:49 | 17.06336 | 105.58386 | 37901 ft | 486 kts | 239° |
| 2026-05-05 22:50 | 17.02697 | 105.52412 | 37901 ft | 486 kts | 239° |
| 2026-05-05 22:50 | 16.99044 | 105.46417 | 37902 ft | 487 kts | 239° |
| 2026-05-05 22:51 | 16.95401 | 105.40447 | 37899 ft | 487 kts | 239° |
| 2026-05-05 22:51 | 16.91762 | 105.34487 | 37894 ft | 486 kts | 239° |
| 2026-05-05 22:52 | 16.88078 | 105.28500 | 37892 ft | 487 kts | 239° |
| 2026-05-05 22:52 | 16.84397 | 105.22510 | 37892 ft | 488 kts | 239° |
| 2026-05-05 22:53 | 16.80726 | 105.16532 | 37895 ft | 487 kts | 239° |
| 2026-05-05 22:53 | 16.77065 | 105.10569 | 37899 ft | 488 kts | 239° |
| 2026-05-05 22:54 | 16.73406 | 105.04614 | 37897 ft | 488 kts | 239° |
| 2026-05-05 22:54 | 16.69707 | 104.98597 | 37897 ft | 488 kts | 239° |
| 2026-05-05 22:55 | 16.66042 | 104.92641 | 37897 ft | 488 kts | 239° |
| 2026-05-05 22:55 | 16.62364 | 104.86670 | 37900 ft | 488 kts | 239° |
| 2026-05-05 22:56 | 16.58682 | 104.80697 | 37898 ft | 489 kts | 239° |
| 2026-05-05 22:56 | 16.54799 | 104.74897 | 37897 ft | 490 kts | 232° |
| 2026-05-05 22:57 | 16.50253 | 104.69572 | 37898 ft | 491 kts | 229° |
| 2026-05-05 22:57 | 16.45641 | 104.64319 | 37897 ft | 491 kts | 230° |
| 2026-05-05 22:58 | 16.41060 | 104.59035 | 37899 ft | 491 kts | 230° |
| 2026-05-05 22:58 | 16.36470 | 104.53706 | 37881 ft | 492 kts | 230° |
| 2026-05-05 22:59 | 16.31905 | 104.48402 | 37873 ft | 491 kts | 230° |
| 2026-05-05 22:59 | 16.27356 | 104.43118 | 37869 ft | 491 kts | 230° |
| 2026-05-05 23:00 | 16.20431 | 104.35174 | 37870 ft | 492 kts | 230° |
| 2026-05-05 23:00 | 16.15811 | 104.29928 | 37871 ft | 492 kts | 229° |
| 2026-05-05 23:01 | 16.11175 | 104.24661 | 37870 ft | 492 kts | 229° |
| 2026-05-05 23:01 | 16.06558 | 104.19398 | 37866 ft | 492 kts | 229° |
| 2026-05-05 23:02 | 16.02000 | 104.14125 | 37863 ft | 492 kts | 230° |
| 2026-05-05 23:02 | 15.97412 | 104.08755 | 37862 ft | 491 kts | 230° |
| 2026-05-05 23:03 | 15.92881 | 104.03462 | 37860 ft | 490 kts | 230° |
| 2026-05-05 23:03 | 15.88312 | 103.98135 | 37860 ft | 491 kts | 230° |
| 2026-05-05 23:04 | 15.83760 | 103.92830 | 37861 ft | 493 kts | 230° |
| 2026-05-05 23:04 | 15.79177 | 103.87496 | 37863 ft | 494 kts | 230° |
| 2026-05-05 23:05 | 15.74627 | 103.82206 | 37866 ft | 491 kts | 230° |
| 2026-05-05 23:05 | 15.70092 | 103.76938 | 37868 ft | 492 kts | 230° |
| 2026-05-05 23:06 | 15.65523 | 103.71633 | 37867 ft | 492 kts | 230° |
| 2026-05-05 23:06 | 15.60945 | 103.66322 | 37865 ft | 491 kts | 230° |
| 2026-05-05 23:07 | 15.56366 | 103.61014 | 37864 ft | 494 kts | 230° |
| 2026-05-05 23:07 | 15.51781 | 103.55703 | 37862 ft | 494 kts | 230° |
| 2026-05-05 23:08 | 15.47186 | 103.50384 | 37861 ft | 492 kts | 230° |
| 2026-05-05 23:08 | 15.42606 | 103.45087 | 37862 ft | 493 kts | 230° |
| 2026-05-05 23:09 | 15.38030 | 103.39798 | 37862 ft | 493 kts | 230° |
| 2026-05-05 23:09 | 15.33423 | 103.34476 | 37857 ft | 492 kts | 230° |
| 2026-05-05 23:10 | 15.28832 | 103.29210 | 37854 ft | 493 kts | 229° |
| 2026-05-05 23:10 | 15.24207 | 103.23899 | 37856 ft | 493 kts | 230° |
| 2026-05-05 23:11 | 15.19599 | 103.18594 | 37862 ft | 494 kts | 230° |
| 2026-05-05 23:11 | 15.14982 | 103.13276 | 37864 ft | 495 kts | 230° |
| 2026-05-05 23:12 | 15.10375 | 103.07973 | 37866 ft | 495 kts | 230° |
| 2026-05-05 23:12 | 15.05728 | 103.02648 | 37862 ft | 495 kts | 227° |
| 2026-05-05 23:13 | 15.00221 | 102.98361 | 37868 ft | 498 kts | 213° |
| 2026-05-05 23:13 | 14.94223 | 102.94738 | 37866 ft | 499 kts | 211° |
| 2026-05-05 23:14 | 14.88165 | 102.91116 | 37866 ft | 499 kts | 212° |
| 2026-05-05 23:14 | 14.82148 | 102.87457 | 37867 ft | 499 kts | 212° |
| 2026-05-05 23:15 | 14.76168 | 102.83798 | 37868 ft | 499 kts | 212° |
| 2026-05-05 23:15 | 14.70152 | 102.80117 | 37867 ft | 497 kts | 212° |
| 2026-05-05 23:16 | 14.64193 | 102.76472 | 37868 ft | 495 kts | 212° |
| 2026-05-05 23:16 | 14.58226 | 102.72897 | 37871 ft | 497 kts | 211° |
| 2026-05-05 23:17 | 14.52183 | 102.69324 | 37873 ft | 498 kts | 211° |
| 2026-05-05 23:17 | 14.46143 | 102.65751 | 37876 ft | 497 kts | 211° |
| 2026-05-05 23:18 | 14.40161 | 102.62209 | 37878 ft | 496 kts | 211° |
| 2026-05-05 23:18 | 14.34151 | 102.58660 | 37880 ft | 496 kts | 211° |
| 2026-05-05 23:19 | 14.28141 | 102.55134 | 37883 ft | 495 kts | 211° |
| 2026-05-05 23:19 | 14.22106 | 102.51597 | 37885 ft | 496 kts | 211° |
| 2026-05-05 23:20 | 14.16095 | 102.48073 | 37888 ft | 496 kts | 211° |
| 2026-05-05 23:20 | 14.10070 | 102.44543 | 37895 ft | 495 kts | 211° |
| 2026-05-05 23:21 | 14.04051 | 102.41018 | 37898 ft | 494 kts | 211° |
| 2026-05-05 23:21 | 13.98079 | 102.37523 | 37898 ft | 493 kts | 211° |
| 2026-05-05 23:22 | 13.92058 | 102.34003 | 37888 ft | 494 kts | 211° |
| 2026-05-05 23:22 | 13.86059 | 102.30521 | 37876 ft | 494 kts | 211° |
| 2026-05-05 23:23 | 13.80053 | 102.27028 | 37865 ft | 495 kts | 211° |
| 2026-05-05 23:23 | 13.74072 | 102.23541 | 37848 ft | 495 kts | 211° |
| 2026-05-05 23:24 | 13.68060 | 102.20042 | 37840 ft | 494 kts | 211° |
| 2026-05-05 23:24 | 13.62051 | 102.16548 | 37851 ft | 493 kts | 211° |
| 2026-05-05 23:25 | 13.56035 | 102.13052 | 37858 ft | 493 kts | 211° |
| 2026-05-05 23:25 | 13.50034 | 102.09566 | 37864 ft | 493 kts | 211° |
| 2026-05-05 23:26 | 13.44006 | 102.06068 | 37867 ft | 494 kts | 211° |
| 2026-05-05 23:26 | 13.38012 | 102.02590 | 37868 ft | 493 kts | 211° |
| 2026-05-05 23:27 | 13.32001 | 101.99104 | 37870 ft | 493 kts | 211° |
| 2026-05-05 23:27 | 13.26018 | 101.95638 | 37872 ft | 492 kts | 211° |
| 2026-05-05 23:28 | 13.20004 | 101.92150 | 37874 ft | 492 kts | 211° |
| 2026-05-05 23:28 | 13.14050 | 101.88689 | 37866 ft | 492 kts | 211° |
| 2026-05-05 23:29 | 13.08046 | 101.85199 | 37857 ft | 492 kts | 211° |
| 2026-05-05 23:29 | 13.02088 | 101.81747 | 37855 ft | 492 kts | 211° |
| 2026-05-05 23:30 | 12.96060 | 101.78275 | 37854 ft | 492 kts | 211° |
| 2026-05-05 23:30 | 12.90109 | 101.74806 | 37851 ft | 492 kts | 211° |
| 2026-05-05 23:31 | 12.84127 | 101.71311 | 37848 ft | 493 kts | 211° |
| 2026-05-05 23:31 | 12.78306 | 101.67565 | 37846 ft | 490 kts | 223° |
| 2026-05-05 23:32 | 12.73838 | 101.62282 | 37852 ft | 490 kts | 235° |
| 2026-05-05 23:32 | 12.69891 | 101.56535 | 37850 ft | 489 kts | 236° |
| 2026-05-05 23:33 | 12.65972 | 101.50842 | 37849 ft | 489 kts | 236° |
| 2026-05-05 23:33 | 12.61995 | 101.45165 | 37845 ft | 490 kts | 235° |
| 2026-05-05 23:34 | 12.57998 | 101.39504 | 37839 ft | 490 kts | 235° |
| 2026-05-05 23:34 | 12.53999 | 101.33856 | 37832 ft | 490 kts | 235° |
| 2026-05-05 23:35 | 12.49962 | 101.28187 | 37825 ft | 491 kts | 235° |
| 2026-05-05 23:35 | 12.45953 | 101.22549 | 37824 ft | 491 kts | 235° |
| 2026-05-05 23:36 | 12.41934 | 101.16884 | 37823 ft | 491 kts | 235° |
| 2026-05-05 23:36 | 12.37956 | 101.11276 | 37823 ft | 492 kts | 235° |
| 2026-05-05 23:37 | 12.33926 | 101.05597 | 37820 ft | 491 kts | 235° |
| 2026-05-05 23:37 | 12.29926 | 100.99968 | 37823 ft | 491 kts | 235° |
| 2026-05-05 23:38 | 12.25890 | 100.94289 | 37826 ft | 493 kts | 235° |
| 2026-05-05 23:38 | 12.21844 | 100.88600 | 37831 ft | 492 kts | 235° |
| 2026-05-05 23:39 | 12.17826 | 100.82954 | 37841 ft | 492 kts | 235° |
| 2026-05-05 23:39 | 12.13775 | 100.77266 | 37843 ft | 493 kts | 235° |
| 2026-05-05 23:40 | 12.09739 | 100.71602 | 37841 ft | 492 kts | 235° |
| 2026-05-05 23:40 | 12.05692 | 100.65924 | 37841 ft | 493 kts | 235° |
| 2026-05-05 23:41 | 12.01646 | 100.60253 | 37840 ft | 494 kts | 235° |
| 2026-05-05 23:41 | 11.97060 | 100.55000 | 37843 ft | 493 kts | 225° |
| 2026-05-05 23:42 | 11.92026 | 100.50256 | 37840 ft | 494 kts | 224° |
| 2026-05-05 23:42 | 11.86941 | 100.45483 | 37840 ft | 494 kts | 224° |
| 2026-05-05 23:43 | 11.81899 | 100.40688 | 37841 ft | 495 kts | 224° |
| 2026-05-05 23:43 | 11.76858 | 100.35871 | 37837 ft | 494 kts | 224° |
| 2026-05-05 23:44 | 11.71808 | 100.31059 | 37836 ft | 493 kts | 224° |
| 2026-05-05 23:44 | 11.66792 | 100.26289 | 37838 ft | 495 kts | 224° |
| 2026-05-05 23:45 | 11.61731 | 100.21465 | 37835 ft | 495 kts | 224° |
| 2026-05-05 23:45 | 11.56683 | 100.16651 | 37835 ft | 496 kts | 224° |
| 2026-05-05 23:46 | 11.51646 | 100.11848 | 37829 ft | 496 kts | 224° |
| 2026-05-05 23:46 | 11.46613 | 100.07052 | 37824 ft | 496 kts | 224° |
| 2026-05-05 23:47 | 11.40944 | 100.03032 | 37822 ft | 497 kts | 209° |
| 2026-05-05 23:47 | 11.34721 | 99.99864 | 37819 ft | 498 kts | 206° |
| 2026-05-05 23:48 | 11.28457 | 99.96858 | 37819 ft | 496 kts | 206° |
| 2026-05-05 23:48 | 11.22222 | 99.93845 | 37820 ft | 498 kts | 206° |
| 2026-05-05 23:49 | 11.15950 | 99.90792 | 37821 ft | 499 kts | 206° |
| 2026-05-05 23:49 | 11.09679 | 99.87733 | 37820 ft | 498 kts | 206° |
| 2026-05-05 23:50 | 11.03411 | 99.84676 | 37824 ft | 496 kts | 206° |
| 2026-05-05 23:50 | 10.97135 | 99.81617 | 37824 ft | 498 kts | 206° |
| 2026-05-05 23:51 | 10.90887 | 99.78574 | 37828 ft | 496 kts | 206° |
| 2026-05-05 23:51 | 10.85703 | 99.76049 | 37832 ft | 497 kts | 206° |
| 2026-05-05 23:52 | 10.79431 | 99.72994 | 37843 ft | 500 kts | 206° |
| 2026-05-05 23:52 | 10.73169 | 99.69948 | 37843 ft | 499 kts | 206° |
| 2026-05-05 23:53 | 10.66884 | 99.66891 | 37840 ft | 498 kts | 206° |
| 2026-05-05 23:53 | 10.60618 | 99.63846 | 37841 ft | 499 kts | 206° |
| 2026-05-05 23:54 | 10.54366 | 99.60809 | 37840 ft | 498 kts | 206° |
| 2026-05-05 23:54 | 10.48098 | 99.57764 | 37843 ft | 497 kts | 206° |
| 2026-05-05 23:55 | 10.41835 | 99.54726 | 37841 ft | 498 kts | 206° |
| 2026-05-05 23:55 | 10.35576 | 99.51688 | 37840 ft | 499 kts | 206° |
| 2026-05-05 23:56 | 10.29315 | 99.48652 | 37841 ft | 500 kts | 206° |
| 2026-05-05 23:56 | 10.23004 | 99.45593 | 37838 ft | 499 kts | 206° |
| 2026-05-05 23:57 | 10.16748 | 99.42562 | 37829 ft | 497 kts | 206° |
| 2026-05-05 23:57 | 10.10487 | 99.39530 | 37827 ft | 498 kts | 206° |
| 2026-05-05 23:58 | 10.04204 | 99.36489 | 37825 ft | 500 kts | 206° |
| 2026-05-05 23:58 | 9.97926 | 99.33456 | 37824 ft | 498 kts | 205° |
| 2026-05-05 23:59 | 9.91626 | 99.30427 | 37625 ft | 503 kts | 205° |
| 2026-05-05 23:59 | 9.88426 | 99.28885 | 37173 ft | 505 kts | 205° |
| 2026-05-05 23:59 | 9.85262 | 99.27357 | 36722 ft | 498 kts | 205° |
| 2026-05-06 00:00 | 9.82169 | 99.25862 | 36276 ft | 489 kts | 205° |
| 2026-05-06 00:00 | 9.79133 | 99.24394 | 35820 ft | 481 kts | 205° |
| 2026-05-06 00:00 | 9.76097 | 99.22927 | 35191 ft | 476 kts | 205° |
| 2026-05-06 00:00 | 9.73119 | 99.21488 | 34481 ft | 473 kts | 205° |
| 2026-05-06 00:01 | 9.70176 | 99.20066 | 33804 ft | 469 kts | 205° |
| 2026-05-06 00:01 | 9.67213 | 99.18636 | 33159 ft | 465 kts | 205° |
| 2026-05-06 00:01 | 9.64310 | 99.17233 | 32543 ft | 460 kts | 205° |
| 2026-05-06 00:01 | 9.61441 | 99.15848 | 31914 ft | 459 kts | 205° |
| 2026-05-06 00:02 | 9.58507 | 99.14433 | 31329 ft | 468 kts | 205° |
| 2026-05-06 00:02 | 9.55536 | 99.13000 | 30771 ft | 482 kts | 205° |
| 2026-05-06 00:02 | 9.52474 | 99.11524 | 30208 ft | 485 kts | 205° |
| 2026-05-06 00:02 | 9.49419 | 99.10050 | 29645 ft | 480 kts | 205° |
| 2026-05-06 00:03 | 9.46424 | 99.08605 | 29091 ft | 475 kts | 204° |
| 2026-05-06 00:03 | 9.43440 | 99.07166 | 28531 ft | 470 kts | 204° |
| 2026-05-06 00:03 | 9.40518 | 99.05756 | 27991 ft | 466 kts | 204° |
| 2026-05-06 00:03 | 9.37609 | 99.04355 | 27448 ft | 462 kts | 204° |
| 2026-05-06 00:04 | 9.34705 | 99.02956 | 26901 ft | 457 kts | 204° |
| 2026-05-06 00:04 | 9.31842 | 99.01577 | 26359 ft | 454 kts | 204° |
| 2026-05-06 00:04 | 9.29012 | 99.00214 | 25805 ft | 450 kts | 204° |
| 2026-05-06 00:04 | 9.26169 | 98.98846 | 25199 ft | 448 kts | 204° |
| 2026-05-06 00:05 | 9.20575 | 98.96152 | 23999 ft | 444 kts | 205° |
| 2026-05-06 00:05 | 9.17786 | 98.94810 | 23399 ft | 442 kts | 205° |
| 2026-05-06 00:05 | 9.14994 | 98.93466 | 22805 ft | 440 kts | 205° |
| 2026-05-06 00:06 | 9.12261 | 98.92151 | 22222 ft | 437 kts | 205° |
| 2026-05-06 00:06 | 9.09494 | 98.90819 | 21647 ft | 435 kts | 205° |
| 2026-05-06 00:06 | 9.06762 | 98.89504 | 21074 ft | 433 kts | 204° |
| 2026-05-06 00:06 | 9.04060 | 98.88204 | 20575 ft | 428 kts | 204° |
| 2026-05-06 00:07 | 9.01374 | 98.86912 | 20079 ft | 424 kts | 204° |
| 2026-05-06 00:07 | 8.98731 | 98.85641 | 19587 ft | 420 kts | 204° |
| 2026-05-06 00:07 | 8.96084 | 98.84368 | 19082 ft | 416 kts | 204° |
| 2026-05-06 00:07 | 8.93481 | 98.83117 | 18597 ft | 412 kts | 204° |
| 2026-05-06 00:08 | 8.90920 | 98.81886 | 18105 ft | 408 kts | 204° |
| 2026-05-06 00:08 | 8.88359 | 98.80656 | 17615 ft | 405 kts | 204° |
| 2026-05-06 00:08 | 8.85828 | 98.79440 | 17112 ft | 401 kts | 204° |
| 2026-05-06 00:08 | 8.83282 | 98.78218 | 16605 ft | 398 kts | 203° |
| 2026-05-06 00:09 | 8.80796 | 98.77025 | 16106 ft | 394 kts | 204° |
| 2026-05-06 00:09 | 8.78354 | 98.75853 | 15619 ft | 391 kts | 203° |
| 2026-05-06 00:09 | 8.75895 | 98.74673 | 15112 ft | 388 kts | 203° |
| 2026-05-06 00:09 | 8.73437 | 98.73492 | 14607 ft | 385 kts | 203° |
| 2026-05-06 00:10 | 8.71038 | 98.72341 | 14109 ft | 382 kts | 203° |
| 2026-05-06 00:10 | 8.68657 | 98.71199 | 13617 ft | 379 kts | 203° |
| 2026-05-06 00:10 | 8.66269 | 98.70054 | 13118 ft | 376 kts | 203° |
| 2026-05-06 00:10 | 8.63900 | 98.68917 | 12613 ft | 373 kts | 203° |
| 2026-05-06 00:11 | 8.61589 | 98.67808 | 12203 ft | 368 kts | 203° |
| 2026-05-06 00:11 | 8.59290 | 98.66705 | 11957 ft | 357 kts | 203° |
| 2026-05-06 00:11 | 8.57074 | 98.65641 | 11715 ft | 348 kts | 203° |
| 2026-05-06 00:11 | 8.54904 | 98.64600 | 11469 ft | 339 kts | 203° |
| 2026-05-06 00:12 | 8.52783 | 98.63583 | 11222 ft | 330 kts | 203° |
| 2026-05-06 00:12 | 8.50851 | 98.62387 | 10972 ft | 325 kts | 218° |
| 2026-05-06 00:12 | 8.49380 | 98.60696 | 10726 ft | 321 kts | 234° |
| 2026-05-06 00:12 | 8.48228 | 98.58768 | 10373 ft | 318 kts | 239° |
| 2026-05-06 00:13 | 8.47156 | 98.56831 | 10027 ft | 316 kts | 239° |
| 2026-05-06 00:13 | 8.46073 | 98.54897 | 9673 ft | 313 kts | 238° |
| 2026-05-06 00:13 | 8.44997 | 98.53008 | 9322 ft | 311 kts | 238° |
| 2026-05-06 00:13 | 8.43911 | 98.51115 | 8974 ft | 309 kts | 238° |
| 2026-05-06 00:14 | 8.42846 | 98.49265 | 8623 ft | 307 kts | 238° |
| 2026-05-06 00:14 | 8.41772 | 98.47399 | 8263 ft | 305 kts | 238° |
| 2026-05-06 00:14 | 8.40713 | 98.45561 | 7912 ft | 304 kts | 238° |
| 2026-05-06 00:14 | 8.39647 | 98.43708 | 7556 ft | 302 kts | 238° |
| 2026-05-06 00:15 | 8.38601 | 98.41891 | 7204 ft | 301 kts | 239° |
| 2026-05-06 00:15 | 8.37548 | 98.40062 | 6854 ft | 300 kts | 239° |
| 2026-05-06 00:15 | 8.36548 | 98.38326 | 6518 ft | 298 kts | 238° |
| 2026-05-06 00:15 | 8.35466 | 98.36447 | 6148 ft | 297 kts | 239° |
| 2026-05-06 00:16 | 8.34433 | 98.34654 | 5802 ft | 297 kts | 238° |
| 2026-05-06 00:16 | 8.33393 | 98.32858 | 5451 ft | 295 kts | 238° |
| 2026-05-06 00:16 | 8.32368 | 98.31085 | 5136 ft | 292 kts | 239° |
| 2026-05-06 00:16 | 8.31340 | 98.29305 | 4816 ft | 290 kts | 239° |
| 2026-05-06 00:17 | 8.30338 | 98.27567 | 4500 ft | 288 kts | 239° |
| 2026-05-06 00:17 | 8.29337 | 98.25831 | 4200 ft | 285 kts | 239° |
| 2026-05-06 00:17 | 8.28350 | 98.24120 | 4060 ft | 275 kts | 239° |
| 2026-05-06 00:17 | 8.27402 | 98.22475 | 4022 ft | 262 kts | 239° |
| 2026-05-06 00:18 | 8.26517 | 98.20940 | 4011 ft | 246 kts | 239° |
| 2026-05-06 00:18 | 8.25667 | 98.19466 | 4009 ft | 241 kts | 239° |
| 2026-05-06 00:18 | 8.24824 | 98.18005 | 4012 ft | 241 kts | 239° |
| 2026-05-06 00:18 | 8.23977 | 98.16536 | 4014 ft | 240 kts | 239° |
| 2026-05-06 00:19 | 8.23136 | 98.15080 | 4009 ft | 240 kts | 239° |
| 2026-05-06 00:19 | 8.22300 | 98.13631 | 4012 ft | 241 kts | 239° |
| 2026-05-06 00:19 | 8.21456 | 98.12168 | 4013 ft | 240 kts | 239° |
| 2026-05-06 00:19 | 8.20615 | 98.10710 | 4014 ft | 241 kts | 239° |
| 2026-05-06 00:20 | 8.19815 | 98.09207 | 4005 ft | 240 kts | 252° |
| 2026-05-06 00:20 | 8.19498 | 98.07556 | 4012 ft | 243 kts | 262° |
| 2026-05-06 00:20 | 8.19249 | 98.05858 | 4012 ft | 241 kts | 262° |
| 2026-05-06 00:20 | 8.19000 | 98.04188 | 4015 ft | 241 kts | 262° |
| 2026-05-06 00:21 | 8.18485 | 98.02586 | 4020 ft | 241 kts | 233° |
| 2026-05-06 00:21 | 8.17213 | 98.01547 | 4023 ft | 239 kts | 197° |
| 2026-05-06 00:21 | 8.15599 | 98.01329 | 4028 ft | 234 kts | 176° |
| 2026-05-06 00:21 | 8.13971 | 98.01404 | 4041 ft | 229 kts | 173° |
| 2026-05-06 00:22 | 8.12417 | 98.01527 | 4024 ft | 214 kts | 172° |
| 2026-05-06 00:22 | 8.10954 | 98.01658 | 4029 ft | 210 kts | 172° |
| 2026-05-06 00:22 | 8.09547 | 98.02001 | 3992 ft | 206 kts | 144° |
| 2026-05-06 00:22 | 8.08657 | 98.03068 | 3771 ft | 201 kts | 105° |
| 2026-05-06 00:23 | 8.08460 | 98.04429 | 3535 ft | 195 kts | 94° |
| 2026-05-06 00:23 | 8.08351 | 98.05794 | 3292 ft | 195 kts | 93° |
| 2026-05-06 00:23 | 8.08264 | 98.07142 | 3072 ft | 188 kts | 92° |
| 2026-05-06 00:23 | 8.08192 | 98.08415 | 2833 ft | 178 kts | 91° |
| 2026-05-06 00:24 | 8.08140 | 98.09644 | 2579 ft | 172 kts | 89° |
| 2026-05-06 00:24 | 8.08177 | 98.10841 | 2337 ft | 171 kts | 85° |
| 2026-05-06 00:24 | 8.08279 | 98.12013 | 2109 ft | 165 kts | 83° |
| 2026-05-06 00:24 | 8.08408 | 98.13145 | 1955 ft | 159 kts | 81° |
| 2026-05-06 00:25 | 8.08561 | 98.14217 | 1921 ft | 149 kts | 80° |
| 2026-05-06 00:25 | 8.08719 | 98.15215 | 1901 ft | 140 kts | 79° |
| 2026-05-06 00:25 | 8.08877 | 98.16170 | 1905 ft | 136 kts | 79° |
| 2026-05-06 00:25 | 8.09038 | 98.17117 | 1911 ft | 136 kts | 79° |
| 2026-05-06 00:26 | 8.09198 | 98.18050 | 1909 ft | 135 kts | 79° |
| 2026-05-06 00:26 | 8.09362 | 98.18996 | 1911 ft | 135 kts | 79° |
| 2026-05-06 00:26 | 8.09523 | 98.19924 | 1908 ft | 134 kts | 79° |
| 2026-05-06 00:26 | 8.09685 | 98.20855 | 1881 ft | 136 kts | 78° |
| 2026-05-06 00:27 | 8.09848 | 98.21788 | 1749 ft | 134 kts | 78° |
| 2026-05-06 00:27 | 8.10009 | 98.22714 | 1581 ft | 134 kts | 78° |
| 2026-05-06 00:27 | 8.10171 | 98.23644 | 1392 ft | 135 kts | 78° |
| 2026-05-06 00:27 | 8.10333 | 98.24574 | 1193 ft | 136 kts | 79° |
| 2026-05-06 00:28 | 8.10499 | 98.25532 | 979 ft | 137 kts | 79° |
| 2026-05-06 00:28 | 8.10665 | 98.26481 | 763 ft | 139 kts | 79° |
| 2026-05-06 00:28 | 8.10861 | 98.27439 | 570 ft | 140 kts | 75° |
| 2026-05-06 00:28 | 8.11019 | 98.28402 | 412 ft | 138 kts | 87° |
| 2026-05-06 00:29 | 8.11107 | 98.29369 | 242 ft | 139 kts | 84° |
| 2026-05-06 00:29 | 8.11196 | 98.30343 | 68 ft | 141 kts | 84° |
| 2026-05-06 00:29 | 8.11286 | 98.31314 | 52 ft | 128 kts | 84° |
| 2026-05-06 00:29 | 8.11354 | 98.32032 | 92 ft | 77 kts | 84° |
| 2026-05-06 00:30 | 8.11397 | 98.32492 | 101 ft | 48 kts | 84° |
| 2026-05-06 00:30 | 8.11420 | 98.32737 | 102 ft | 18 kts | 84° |
| 2026-05-06 00:30 | 8.11433 | 98.32857 | 105 ft | 13 kts | 83° |
| 2026-05-06 00:30 | 8.11452 | 98.32924 | 106 ft | 9 kts | 53° |
| 2026-05-06 00:31 | 8.11496 | 98.32976 | 108 ft | 9 kts | 62° |
| 2026-05-06 00:31 | 8.11474 | 98.33019 | 108 ft | 8 kts | 183° |
| 2026-05-06 00:31 | 8.11444 | 98.32962 | 107 ft | 11 kts | 262° |
| 2026-05-06 00:31 | 8.11434 | 98.32878 | 105 ft | 12 kts | 264° |
| 2026-05-06 00:32 | 8.11425 | 98.32788 | 103 ft | 13 kts | 264° |
| 2026-05-06 00:32 | 8.11415 | 98.32692 | 101 ft | 14 kts | 265° |
| 2026-05-06 00:32 | 8.11406 | 98.32587 | 99 ft | 15 kts | 265° |
| 2026-05-06 00:32 | 8.11397 | 98.32489 | 101 ft | 13 kts | 265° |
| 2026-05-06 00:33 | 8.11389 | 98.32402 | 101 ft | 12 kts | 263° |
| 2026-05-06 00:33 | 8.11379 | 98.32308 | 101 ft | 14 kts | 264° |
| 2026-05-06 00:33 | 8.11368 | 98.32185 | 99 ft | 20 kts | 265° |
| 2026-05-06 00:33 | 8.11353 | 98.32017 | 91 ft | 27 kts | 265° |
| 2026-05-06 00:34 | 8.11336 | 98.31806 | 79 ft | 33 kts | 265° |
| 2026-05-06 00:34 | 8.11308 | 98.31555 | 63 ft | 36 kts | 262° |
| 2026-05-06 00:34 | 8.11285 | 98.31287 | 50 ft | 34 kts | 263° |
| 2026-05-06 00:34 | 8.11262 | 98.31056 | 44 ft | 30 kts | 265° |
| 2026-05-06 00:35 | 8.11246 | 98.30881 | 42 ft | 21 kts | 264° |
| 2026-05-06 00:35 | 8.11231 | 98.30725 | 37 ft | 23 kts | 264° |
| 2026-05-06 00:35 | 8.11218 | 98.30582 | 35 ft | 10 kts | 264° |
| 2026-05-06 00:35 | 8.11183 | 98.30526 | 34 ft | 10 kts | 195° |
| 2026-05-06 00:36 | 8.11119 | 98.30511 | 34 ft | 8 kts | 197° |
| 2026-05-06 00:36 | 8.11067 | 98.30495 | 35 ft | 6 kts | 197° |
| 2026-05-06 00:36 | 8.11026 | 98.30482 | 35 ft | 5 kts | 197° |
| 2026-05-06 00:36 | 8.10988 | 98.30475 | 35 ft | 6 kts | 190° |
| 2026-05-06 00:37 | 8.10930 | 98.30462 | 35 ft | 10 kts | 194° |
| 2026-05-06 00:37 | 8.10850 | 98.30441 | 35 ft | 12 kts | 194° |
| 2026-05-06 00:37 | 8.10768 | 98.30420 | 36 ft | 11 kts | 194° |
| 2026-05-06 00:37 | 8.10685 | 98.30399 | 36 ft | 12 kts | 194° |
| 2026-05-06 00:38 | 8.10625 | 98.30382 | 35 ft | 4 kts | 191° |
| 2026-05-06 00:38 | 8.10601 | 98.30390 | 35 ft | 2 kts | 118° |
| 2026-05-06 00:38 | 8.10597 | 98.30403 | 36 ft | 1 kts | 103° |
| 2026-05-06 00:38 | 8.10593 | 98.30421 | 36 ft | 5 kts | 103° |
| 2026-05-06 00:39 | 8.10585 | 98.30453 | 38 ft | 2 kts | 104° |
| 2026-05-06 00:39 | 8.10584 | 98.30456 | 38 ft | 0 kts | 104° |